Aviation Digital Data Service (ADDS)

Output produced by METARs form (0943 UTC 17 November 2018)
found at http://www.aviationweather.gov/metar/data/
 
GFLL 170900Z 14005KT 9999 BR BKN011 FEW027CB 29/24 Q1012 RMK CB-NE
TAF GFLL 162300Z 1700/1806 26004KT 9999 TS FEW015 FEW027CB 
     TEMPO 1704/1708 VRB03KT 6000 -BR BKN011 
     BECMG 1712/1714 24006KT 9999 SCT013 
     TEMPO 1722/1803 30005KT TS FEW015 FEW027CB